sensor_id;sensor_type;location;lat;lon;timestamp;pressure;altitude;pressure_sealevel;temperature;humidity
73896;BME280;73986;50.770;6.080;2024-01-15T00:02:25;98352.75;;;0.00;71.02
73896;BME280;73986;50.770;6.080;2024-01-15T00:12:26;98354.50;;;-0.01;70.68
73896;BME280;73986;50.770;6.080;2024-01-15T00:22:31;98338.88;;;0.01;70.95
73896;BME280;73986;50.770;6.080;2024-01-15T00:32:32;98327.44;;;0.05;70.63
73896;BME280;73986;50.770;6.080;2024-01-15T00:42:35;98325.38;;;0.12;71.05
73896;BME280;73986;50.770;6.080;2024-01-15T00:52:37;98325.44;;;0.10;70.86
73896;BME280;73986;50.770;6.080;2024-01-15T01:02:41;98313.78;;;0.03;71.04
73896;BME280;73986;50.770;6.080;2024-01-15T01:12:43;98304.91;;;0.07;71.18
73896;BME280;73986;50.770;6.080;2024-01-15T01:22:45;98292.91;;;0.06;70.89
73896;BME280;73986;50.770;6.080;2024-01-15T01:32:47;98294.91;;;0.01;71.19
73896;BME280;73986;50.770;6.080;2024-01-15T01:42:50;98289.41;;;-0.09;71.68
73896;BME280;73986;50.770;6.080;2024-01-15T01:52:52;98300.22;;;-0.18;71.71
73896;BME280;73986;50.770;6.080;2024-01-15T02:02:55;98305.38;;;-0.18;71.71
73896;BME280;73986;50.770;6.080;2024-01-15T02:12:57;98302.50;;;-0.12;71.68
73896;BME280;73986;50.770;6.080;2024-01-15T02:23:18;98304.25;;;-0.13;72.03
73896;BME280;73986;50.770;6.080;2024-01-15T02:33:20;98299.56;;;-0.06;71.87
73896;BME280;73986;50.770;6.080;2024-01-15T02:43:23;98304.25;;;0.04;72.33
73896;BME280;73986;50.770;6.080;2024-01-15T02:53:28;98309.28;;;0.07;72.12
73896;BME280;73986;50.770;6.080;2024-01-15T03:03:31;98308.22;;;-0.07;72.46
73896;BME280;73986;50.770;6.080;2024-01-15T03:13:35;98293.91;;;-0.13;72.90
73896;BME280;73986;50.770;6.080;2024-01-15T03:23:38;98294.50;;;-0.07;72.71
73896;BME280;73986;50.770;6.080;2024-01-15T03:33:40;98293.25;;;0.00;73.08
73896;BME280;73986;50.770;6.080;2024-01-15T03:43:43;98280.06;;;0.21;72.49
73896;BME280;73986;50.770;6.080;2024-01-15T03:53:45;98273.97;;;0.22;72.92
73896;BME280;73986;50.770;6.080;2024-01-15T04:03:48;98258.84;;;0.30;72.49
73896;BME280;73986;50.770;6.080;2024-01-15T04:13:50;98252.00;;;0.29;72.96
73896;BME280;73986;50.770;6.080;2024-01-15T04:23:53;98252.66;;;0.33;73.15
73896;BME280;73986;50.770;6.080;2024-01-15T04:33:55;98239.50;;;0.21;73.03
73896;BME280;73986;50.770;6.080;2024-01-15T04:43:58;98244.16;;;0.31;73.35
73896;BME280;73986;50.770;6.080;2024-01-15T04:54:01;98224.69;;;0.40;73.00
73896;BME280;73986;50.770;6.080;2024-01-15T05:04:04;98226.28;;;0.42;73.26
73896;BME280;73986;50.770;6.080;2024-01-15T05:14:05;98219.34;;;0.43;72.99
73896;BME280;73986;50.770;6.080;2024-01-15T05:24:09;98204.94;;;0.53;73.19
73896;BME280;73986;50.770;6.080;2024-01-15T05:34:10;98214.97;;;0.59;73.30
73896;BME280;73986;50.770;6.080;2024-01-15T05:44:13;98211.25;;;0.64;73.15
73896;BME280;73986;50.770;6.080;2024-01-15T05:54:15;98192.63;;;0.73;73.29
73896;BME280;73986;50.770;6.080;2024-01-15T06:04:18;98193.88;;;0.66;73.19
73896;BME280;73986;50.770;6.080;2024-01-15T06:14:20;98186.47;;;0.59;73.48
73896;BME280;73986;50.770;6.080;2024-01-15T06:24:23;98186.31;;;0.63;73.25
73896;BME280;73986;50.770;6.080;2024-01-15T06:34:24;98175.28;;;0.59;73.69
73896;BME280;73986;50.770;6.080;2024-01-15T06:44:27;98169.13;;;0.62;73.44
73896;BME280;73986;50.770;6.080;2024-01-15T06:54:29;98178.91;;;0.56;73.58
73896;BME280;73986;50.770;6.080;2024-01-15T07:04:32;98169.34;;;0.57;73.41
73896;BME280;73986;50.770;6.080;2024-01-15T07:14:33;98171.84;;;0.58;73.61
73896;BME280;73986;50.770;6.080;2024-01-15T07:24:37;98160.81;;;0.40;73.59
73896;BME280;73986;50.770;6.080;2024-01-15T07:34:38;98164.28;;;0.55;73.19
73896;BME280;73986;50.770;6.080;2024-01-15T07:44:41;98164.94;;;0.59;73.32
73896;BME280;73986;50.770;6.080;2024-01-15T07:54:43;98170.00;;;0.60;73.24
73896;BME280;73986;50.770;6.080;2024-01-15T08:04:48;98181.31;;;0.74;73.26
73896;BME280;73986;50.770;6.080;2024-01-15T08:14:50;98174.78;;;0.68;73.53
73896;BME280;73986;50.770;6.080;2024-01-15T08:24:53;98178.34;;;0.66;73.34
73896;BME280;73986;50.770;6.080;2024-01-15T08:34:55;98190.31;;;0.83;73.26
73896;BME280;73986;50.770;6.080;2024-01-15T08:44:58;98177.94;;;1.03;72.69
73896;BME280;73986;50.770;6.080;2024-01-15T08:55:00;98196.63;;;1.08;72.98
73896;BME280;73986;50.770;6.080;2024-01-15T09:05:03;98209.44;;;1.11;72.72
73896;BME280;73986;50.770;6.080;2024-01-15T09:15:06;98218.91;;;0.81;73.54
73896;BME280;73986;50.770;6.080;2024-01-15T09:25:10;98223.59;;;0.44;74.42
73896;BME280;73986;50.770;6.080;2024-01-15T09:35:11;98231.78;;;0.36;74.25
73896;BME280;73986;50.770;6.080;2024-01-15T09:45:15;98219.19;;;0.46;74.07
73896;BME280;73986;50.770;6.080;2024-01-15T09:55:17;98218.50;;;0.42;73.91
73896;BME280;73986;50.770;6.080;2024-01-15T10:05:20;98226.56;;;0.68;73.94
73896;BME280;73986;50.770;6.080;2024-01-15T10:15:22;98223.31;;;0.65;73.90
73896;BME280;73986;50.770;6.080;2024-01-15T10:25:25;98219.25;;;1.06;73.34
73896;BME280;73986;50.770;6.080;2024-01-15T10:35:28;98229.13;;;1.14;73.64
73896;BME280;73986;50.770;6.080;2024-01-15T10:45:31;98213.88;;;1.53;72.92
73896;BME280;73986;50.770;6.080;2024-01-15T10:55:33;98216.63;;;1.79;72.09
73896;BME280;73986;50.770;6.080;2024-01-15T11:05:38;98221.91;;;2.19;71.52
73896;BME280;73986;50.770;6.080;2024-01-15T11:15:59;98223.97;;;2.14;72.04
73896;BME280;73986;50.770;6.080;2024-01-15T11:26:02;98219.59;;;1.87;72.04
73896;BME280;73986;50.770;6.080;2024-01-15T11:36:04;98222.63;;;1.94;72.20
73896;BME280;73986;50.770;6.080;2024-01-15T11:46:11;98229.06;;;1.88;72.09
73896;BME280;73986;50.770;6.080;2024-01-15T11:56:15;98242.38;;;1.97;71.18
73896;BME280;73986;50.770;6.080;2024-01-15T12:06:18;98226.53;;;2.57;70.02
73896;BME280;73986;50.770;6.080;2024-01-15T12:16:21;98227.34;;;2.57;70.47
73896;BME280;73986;50.770;6.080;2024-01-15T12:26:24;98225.97;;;1.81;71.56
73896;BME280;73986;50.770;6.080;2024-01-15T12:36:25;98224.16;;;1.69;71.86
73896;BME280;73986;50.770;6.080;2024-01-15T12:46:28;98252.41;;;1.88;71.75
73896;BME280;73986;50.770;6.080;2024-01-15T12:56:30;98277.63;;;1.12;72.71
73896;BME280;73986;50.770;6.080;2024-01-15T13:06:33;98290.81;;;0.62;73.75
73896;BME280;73986;50.770;6.080;2024-01-15T13:16:35;98296.97;;;0.75;73.54
73896;BME280;73986;50.770;6.080;2024-01-15T13:26:38;98284.81;;;0.92;72.94
73896;BME280;73986;50.770;6.080;2024-01-15T13:36:40;98279.03;;;1.32;71.96
73896;BME280;73986;50.770;6.080;2024-01-15T13:46:43;98278.09;;;1.18;73.10
73896;BME280;73986;50.770;6.080;2024-01-15T13:56:44;98298.50;;;0.94;73.58
73896;BME280;73986;50.770;6.080;2024-01-15T14:06:48;98315.59;;;0.82;73.78
73896;BME280;73986;50.770;6.080;2024-01-15T14:16:51;98331.13;;;0.82;73.32
73896;BME280;73986;50.770;6.080;2024-01-15T14:26:53;98337.78;;;0.86;73.25
73896;BME280;73986;50.770;6.080;2024-01-15T14:36:55;98347.59;;;0.65;73.82
73896;BME280;73986;50.770;6.080;2024-01-15T14:46:58;98368.06;;;0.53;73.69
73896;BME280;73986;50.770;6.080;2024-01-15T14:57:00;98383.38;;;0.58;73.44
73896;BME280;73986;50.770;6.080;2024-01-15T15:07:03;98402.88;;;0.64;73.26
73896;BME280;73986;50.770;6.080;2024-01-15T15:17:06;98415.69;;;0.51;73.24
73896;BME280;73986;50.770;6.080;2024-01-15T15:27:11;98421.63;;;0.53;73.16
73896;BME280;73986;50.770;6.080;2024-01-15T15:37:12;98443.22;;;0.35;73.44
73896;BME280;73986;50.770;6.080;2024-01-15T15:47:18;98453.28;;;0.24;73.50
73896;BME280;73986;50.770;6.080;2024-01-15T15:57:19;98469.81;;;0.21;73.39
73896;BME280;73986;50.770;6.080;2024-01-15T16:07:22;98495.53;;;0.24;73.18
73896;BME280;73986;50.770;6.080;2024-01-15T16:17:28;98498.59;;;0.15;73.52
73896;BME280;73986;50.770;6.080;2024-01-15T16:27:32;98488.75;;;0.22;73.12
73896;BME280;73986;50.770;6.080;2024-01-15T16:37:34;98513.13;;;0.18;73.13
73896;BME280;73986;50.770;6.080;2024-01-15T16:47:38;98518.97;;;0.04;73.64
73896;BME280;73986;50.770;6.080;2024-01-15T16:57:39;98539.69;;;0.04;73.72
73896;BME280;73986;50.770;6.080;2024-01-15T17:07:45;98544.94;;;0.02;73.87
73896;BME280;73986;50.770;6.080;2024-01-15T17:17:47;98550.03;;;0.04;73.99
73896;BME280;73986;50.770;6.080;2024-01-15T17:27:50;98574.22;;;0.03;73.67
73896;BME280;73986;50.770;6.080;2024-01-15T17:37:52;98585.59;;;0.00;74.11
73896;BME280;73986;50.770;6.080;2024-01-15T17:47:57;98593.47;;;-0.03;74.60
73896;BME280;73986;50.770;6.080;2024-01-15T17:57:58;98603.63;;;0.02;74.54
73896;BME280;73986;50.770;6.080;2024-01-15T18:08:02;98622.53;;;0.02;74.50
73896;BME280;73986;50.770;6.080;2024-01-15T18:18:04;98635.41;;;0.04;74.62
73896;BME280;73986;50.770;6.080;2024-01-15T18:28:07;98654.97;;;0.09;74.63
73896;BME280;73986;50.770;6.080;2024-01-15T18:38:10;98647.78;;;-0.03;74.67
73896;BME280;73986;50.770;6.080;2024-01-15T18:48:13;98662.97;;;0.05;74.97
73896;BME280;73986;50.770;6.080;2024-01-15T18:58:15;98676.47;;;-0.08;75.04
73896;BME280;73986;50.770;6.080;2024-01-15T19:08:18;98685.16;;;-0.09;75.13
73896;BME280;73986;50.770;6.080;2024-01-15T19:18:20;98702.34;;;-0.08;74.97
73896;BME280;73986;50.770;6.080;2024-01-15T19:28:23;98711.91;;;-0.10;74.91
73896;BME280;73986;50.770;6.080;2024-01-15T19:38:25;98711.72;;;-0.05;75.15
73896;BME280;73986;50.770;6.080;2024-01-15T19:48:28;98737.59;;;-0.05;75.42
73896;BME280;73986;50.770;6.080;2024-01-15T19:58:30;98734.84;;;-0.02;75.42
73896;BME280;73986;50.770;6.080;2024-01-15T20:08:37;98737.38;;;-0.01;75.37
73896;BME280;73986;50.770;6.080;2024-01-15T20:18:43;98738.56;;;-0.08;75.66
73896;BME280;73986;50.770;6.080;2024-01-15T20:28:47;98753.75;;;0.00;75.88
73896;BME280;73986;50.770;6.080;2024-01-15T20:38:48;98759.81;;;-0.20;75.92
73896;BME280;73986;50.770;6.080;2024-01-15T20:48:51;98769.03;;;-0.15;76.17
73896;BME280;73986;50.770;6.080;2024-01-15T20:59:01;98773.28;;;-0.14;76.38
73896;BME280;73986;50.770;6.080;2024-01-15T21:09:04;98765.50;;;-0.12;75.98
73896;BME280;73986;50.770;6.080;2024-01-15T21:19:07;98761.75;;;-0.06;75.81
73896;BME280;73986;50.770;6.080;2024-01-15T21:29:10;98778.22;;;-0.07;75.98
73896;BME280;73986;50.770;6.080;2024-01-15T21:39:11;98767.28;;;0.05;76.20
73896;BME280;73986;50.770;6.080;2024-01-15T21:49:17;98786.25;;;0.06;76.05
73896;BME280;73986;50.770;6.080;2024-01-15T21:59:18;98776.81;;;0.05;75.59
73896;BME280;73986;50.770;6.080;2024-01-15T22:09:21;98786.31;;;0.04;75.62
73896;BME280;73986;50.770;6.080;2024-01-15T22:19:23;98802.91;;;0.00;76.22
73896;BME280;73986;50.770;6.080;2024-01-15T22:29:26;98825.94;;;-0.15;76.18
73896;BME280;73986;50.770;6.080;2024-01-15T22:39:28;98818.03;;;-0.11;75.92
73896;BME280;73986;50.770;6.080;2024-01-15T22:49:31;98831.25;;;-0.18;76.14
73896;BME280;73986;50.770;6.080;2024-01-15T22:59:35;98850.34;;;-0.01;76.06
73896;BME280;73986;50.770;6.080;2024-01-15T23:09:40;98858.34;;;-0.06;76.02
73896;BME280;73986;50.770;6.080;2024-01-15T23:19:42;98854.81;;;-0.05;76.12
73896;BME280;73986;50.770;6.080;2024-01-15T23:29:47;98847.69;;;0.01;75.83
73896;BME280;73986;50.770;6.080;2024-01-15T23:39:49;98865.00;;;0.00;75.95
73896;BME280;73986;50.770;6.080;2024-01-15T23:49:53;98867.50;;;0.02;75.86
73896;BME280;73986;50.770;6.080;2024-01-15T23:59:55;98874.56;;;-0.02;76.18
